Detall de PIREP

Printer-friendly versionPDF version

[2017/08/16 04:44:00]
Flight IATA:CT0001
Pilot Number:041
Company ICAO:CAT
Aircraft Type:B463/A
PAX:89
Aircraft Registration:PAX
Departing Airport: LEIB
Destination Airport: LEVC
Alternate Airport:LEBL
Online: VATSIM
Route:XOSTA G30 NINOT
Flight Level:FL150
No Slew and time accel
No pause
Crash detect
Detect pilot in Cockpit between each 30 and 45 minutes
04:44 Zero fuel Weight: 79465 Lbs, Fuel Weight: 19772 Lbs
04:44 VATSIM:LEIB 160430Z 02004KT 9999 SCT014 25/24 Q1016 NOSIG
04:44 VATSIM:LEVC 160430Z 31004KT 9999 FEW020 23/20 Q1017 NOSIG
04:44 VOICE CATALONIAN
04:44 Parking Brakes off
04:54 Take-off
04:54 Take off Weight: 98753 Lbs
04:54 Wind: 182º @ 006 Knots Heading: 064º
04:54 POS N38º 52´ 26´´ E001º 22´ 33´´
04:54 Gear Up: 175 Knots
04:54 Flaps:1 at 176 Knots
04:55 Flaps:0 at 219 Knots
05:02 TOC
05:02 Fuel Weight: 18121 Lb
05:08 TOD
05:08 Fuel Weight: 17607 Lb
05:09 Wind:284º@011 Knots Heading: 289º Ground Speed: 316 Knots Altitude 13595 ft
05:14 Flaps:1 at 212 Knots
05:19 Flaps:2 at 177 Knots
05:20 Gear Down: 171 Knots
05:20 Flaps:3 at 153 Knots
05:21 Flaps:4 at 147 Knots
05:23 TouchDown:Rate -89 ft/min Speed: 127 Knots
05:24 Wind:073º@009 Knots Heading: 296º Ground Speed: 071 Knots Altitude 246 ft
05:24 VATSIM:LEVC 160500Z 33003KT 290V360 9999 FEW020 23/20 Q1018 NOSIG
05:24 Land
05:24 Wind:073º@009 Knots
05:24 Heading: 295º
05:24 Flight Duration: 00:30
05:24 Landing Weight: 96370 Lbs
05:24 POS N39º 29´ 28´´ W000º 29´ 11´´
05:31 Parking brakes on
05:31 Block to Block Duration: 00:47
05:31 Final Fuel: 16589 Lbls
05:31 Spent Fuel: 3183 Lbls
05:31 Flight Length: 124 NM
05:31 TOD Land Length: 53 NM

Exportar CSV

Powered by Drupal - Modified by Danger4k